Time;durP1;ratioP1;P1;durP2;ratioP2;P2;SDS_P1;SDS_P2;PMS_P1;PMS_P2;Temp;Humidity;BMP_temperature;BMP_pressure;BME280_temperature;BME280_humidity;BME280_pressure;Samples;Min_cycle;Max_cycle;Signal;HPM_P1;HPM_P2
2023/11/06 00:01:44;;;;;;;3.20;1.67;;;21.60;58.90;;;;;;5051864;28;20175;-69
2023/11/06 00:04:10;;;;;;;2.00;1.70;;;21.60;58.90;;;;;;5051798;28;20167;-68
2023/11/06 00:06:36;;;;;;;1.97;1.37;;;21.60;58.90;;;;;;5051701;28;20775;-70
2023/11/06 00:09:05;;;;;;;2.50;2.07;;;21.60;58.90;;;;;;5042482;28;20953;-69
2023/11/06 00:11:31;;;;;;;2.50;1.90;;;21.60;58.90;;;;;;5051085;28;20524;-69
2023/11/06 00:13:56;;;;;;;2.60;1.47;;;21.60;58.90;;;;;;5031472;28;20426;-70
2023/11/06 00:16:22;;;;;;;2.23;1.60;;;21.60;58.90;;;;;;5030979;28;20195;-70
2023/11/06 00:18:48;;;;;;;2.33;1.60;;;21.60;58.90;;;;;;5031268;28;20189;-70
2023/11/06 00:21:14;;;;;;;2.60;1.87;;;21.60;58.90;;;;;;5031316;28;20207;-68
2023/11/06 00:23:40;;;;;;;1.83;1.30;;;21.60;58.90;;;;;;5030045;28;20179;-68
2023/11/06 00:26:06;;;;;;;2.33;2.10;;;21.50;58.80;;;;;;5031389;28;20542;-70
2023/11/06 00:28:32;;;;;;;2.10;1.57;;;21.60;58.90;;;;;;5031334;28;20504;-68
2023/11/06 00:30:57;;;;;;;2.10;1.50;;;21.60;58.90;;;;;;5031849;28;20602;-69
2023/11/06 00:33:23;;;;;;;1.60;1.40;;;21.60;58.90;;;;;;5031232;28;20501;-69
2023/11/06 00:35:49;;;;;;;3.10;2.00;;;21.60;58.90;;;;;;5031050;28;20202;-71
2023/11/06 00:38:15;;;;;;;2.30;1.93;;;21.60;58.90;;;;;;5031156;28;20456;-69
2023/11/06 00:40:42;;;;;;;2.10;1.50;;;21.60;58.90;;;;;;5031145;28;20407;-68
2023/11/06 00:43:07;;;;;;;2.57;1.73;;;21.60;58.90;;;;;;5031120;28;20164;-69
2023/11/06 00:45:33;;;;;;;1.83;1.30;;;21.60;58.90;;;;;;5031021;28;20426;-70
2023/11/06 00:47:58;;;;;;;1.70;1.50;;;21.60;58.90;;;;;;5030998;28;20262;-69
2023/11/06 00:50:24;;;;;;;2.33;1.70;;;21.60;58.90;;;;;;5030947;28;20663;-70
2023/11/06 00:52:49;;;;;;;3.17;1.67;;;21.60;58.90;;;;;;5030903;28;20221;-70
2023/11/06 00:55:15;;;;;;;1.83;1.43;;;21.60;58.90;;;;;;5030811;28;20195;-69
2023/11/06 00:57:41;;;;;;;2.10;1.50;;;21.60;58.90;;;;;;5030812;28;20195;-69
2023/11/06 01:00:10;;;;;;;2.70;1.90;;;21.60;58.90;;;;;;5030825;28;20174;-68
2023/11/06 01:02:37;;;;;;;2.10;1.53;;;21.60;58.90;;;;;;5030526;28;20176;-69
2023/11/06 01:05:04;;;;;;;2.70;2.20;;;21.60;58.90;;;;;;5030597;28;20422;-70
2023/11/06 01:07:31;;;;;;;1.47;1.37;;;21.60;58.90;;;;;;5030682;28;20466;-69
2023/11/06 01:09:56;;;;;;;2.27;1.53;;;21.60;58.90;;;;;;5030624;28;20904;-69
2023/11/06 01:12:22;;;;;;;2.47;1.70;;;21.60;58.90;;;;;;5030543;28;20438;-70
2023/11/06 01:14:49;;;;;;;1.97;1.43;;;21.50;59.40;;;;;;5030431;28;20171;-69
2023/11/06 01:17:14;;;;;;;1.83;1.47;;;21.60;58.90;;;;;;5030347;28;20203;-69
2023/11/06 01:19:40;;;;;;;2.10;1.50;;;21.60;59.40;;;;;;5030493;28;21233;-69
2023/11/06 01:22:06;;;;;;;2.77;2.10;;;21.60;59.10;;;;;;5030411;28;20187;-69
2023/11/06 01:24:31;;;;;;;3.47;1.67;;;21.60;58.90;;;;;;5030312;28;20183;-69
2023/11/06 01:26:57;;;;;;;2.27;1.40;;;21.60;58.90;;;;;;5030324;28;20191;-69
2023/11/06 01:29:23;;;;;;;1.57;1.47;;;21.60;58.90;;;;;;5030297;28;20269;-70
2023/11/06 01:31:48;;;;;;;1.77;1.23;;;21.60;58.80;;;;;;5030201;28;20585;-70
2023/11/06 01:34:14;;;;;;;2.10;1.27;;;21.60;58.80;;;;;;5029922;28;20184;-68
2023/11/06 01:36:43;;;;;;;2.20;1.67;;;21.60;58.90;;;;;;5033344;28;20248;-68
2023/11/06 01:39:10;;;;;;;2.07;1.60;;;21.60;58.90;;;;;;5049480;28;20175;-69
2023/11/06 01:41:36;;;;;;;1.90;1.60;;;21.60;58.90;;;;;;5049324;28;20445;-70
2023/11/06 01:44:02;;;;;;;1.70;1.30;;;21.60;58.90;;;;;;5049539;28;20437;-69
2023/11/06 01:46:28;;;;;;;2.63;1.90;;;21.60;58.90;;;;;;5049721;28;20461;-68
2023/11/06 01:48:54;;;;;;;2.30;1.20;;;21.60;58.90;;;;;;5049811;28;20179;-69
2023/11/06 01:51:20;;;;;;;1.73;1.20;;;21.60;59.40;;;;;;5049808;28;20412;-69
2023/11/06 01:53:47;;;;;;;1.50;1.30;;;21.60;58.90;;;;;;5049835;28;20535;-69
2023/11/06 01:56:14;;;;;;;3.83;2.23;;;21.60;58.90;;;;;;5049713;28;20457;-70
2023/11/06 01:58:39;;;;;;;1.80;1.40;;;21.60;58.90;;;;;;5049857;28;20410;-70
2023/11/06 02:01:06;;;;;;;2.50;1.63;;;21.60;58.90;;;;;;5049861;28;20401;-69
2023/11/06 02:03:33;;;;;;;1.93;1.40;;;21.60;58.90;;;;;;5049746;28;20174;-67
2023/11/06 02:05:59;;;;;;;2.00;1.27;;;21.60;58.90;;;;;;5050020;28;20931;-69
2023/11/06 02:08:24;;;;;;;1.97;1.40;;;21.60;58.90;;;;;;5049774;28;20962;-68
2023/11/06 02:10:50;;;;;;;1.50;1.40;;;21.60;58.90;;;;;;5048363;28;20417;-69
2023/11/06 02:13:17;;;;;;;2.40;1.47;;;21.60;58.90;;;;;;5048319;28;20261;-70
2023/11/06 02:15:43;;;;;;;1.80;1.20;;;21.60;58.90;;;;;;5050222;28;20198;-69
2023/11/06 02:18:08;;;;;;;2.20;1.70;;;21.60;58.90;;;;;;5053629;28;21119;-69
2023/11/06 02:20:36;;;;;;;2.07;1.40;;;21.60;58.90;;;;;;5053732;28;20171;-69
2023/11/06 02:23:03;;;;;;;2.37;1.50;;;21.60;58.90;;;;;;5053884;28;20175;-69
2023/11/06 02:25:29;;;;;;;1.73;1.30;;;21.60;58.90;;;;;;5052101;28;20528;-69
2023/11/06 02:27:55;;;;;;;2.00;1.50;;;21.60;58.90;;;;;;5053862;28;20405;-69
2023/11/06 02:30:21;;;;;;;1.90;1.47;;;21.60;58.90;;;;;;5053713;28;20478;-69
2023/11/06 02:32:47;;;;;;;2.40;1.43;;;21.60;58.90;;;;;;5053521;28;20552;-70
2023/11/06 02:35:13;;;;;;;2.27;1.47;;;21.60;58.90;;;;;;5053649;28;20528;-70
2023/11/06 02:37:38;;;;;;;2.00;1.47;;;21.60;58.90;;;;;;5053281;28;20199;-69
2023/11/06 02:40:06;;;;;;;2.40;1.43;;;21.60;58.80;;;;;;5052017;28;20334;-69
2023/11/06 02:42:38;;;;;;;2.23;1.40;;;21.60;58.80;;;;;;5053520;28;20610;-70
2023/11/06 02:45:04;;;;;;;2.57;1.43;;;21.60;58.90;;;;;;5053231;28;21003;-69
2023/11/06 02:47:30;;;;;;;2.53;1.50;;;21.60;58.90;;;;;;5053336;28;21085;-69
2023/11/06 02:49:56;;;;;;;1.77;1.30;;;21.60;58.90;;;;;;5053208;28;20908;-69
2023/11/06 02:52:21;;;;;;;2.43;1.70;;;21.60;58.90;;;;;;5051701;28;20474;-70
2023/11/06 02:54:47;;;;;;;1.83;1.27;;;21.60;58.90;;;;;;5052983;28;20549;-69
2023/11/06 02:57:13;;;;;;;3.50;1.60;;;21.60;58.90;;;;;;5051647;28;20251;-69
2023/11/06 02:59:38;;;;;;;2.73;1.40;;;21.60;58.80;;;;;;5051605;28;20182;-69
2023/11/06 03:02:04;;;;;;;1.53;1.30;;;21.60;58.90;;;;;;5052906;28;20604;-68
2023/11/06 03:04:32;;;;;;;2.00;1.60;;;21.60;58.80;;;;;;5052912;28;20212;-69
2023/11/06 03:06:57;;;;;;;2.27;1.30;;;21.60;58.90;;;;;;5051354;28;20199;-69
2023/11/06 03:09:24;;;;;;;1.87;1.20;;;21.60;58.90;;;;;;5051399;28;20421;-69
2023/11/06 03:11:50;;;;;;;1.97;1.30;;;21.60;58.80;;;;;;5052707;28;20167;-69
2023/11/06 03:14:15;;;;;;;2.30;1.30;;;21.60;58.80;;;;;;5052674;28;20490;-69
2023/11/06 03:16:41;;;;;;;2.83;1.30;;;21.60;58.80;;;;;;5052452;28;20553;-70
2023/11/06 03:19:07;;;;;;;1.77;1.33;;;21.60;58.80;;;;;;5052591;28;20182;-69
2023/11/06 03:21:32;;;;;;;1.83;1.30;;;21.60;58.90;;;;;;5052606;28;20175;-69
2023/11/06 03:23:58;;;;;;;2.30;1.47;;;21.60;58.80;;;;;;5052425;28;20167;-70
2023/11/06 03:26:24;;;;;;;2.30;1.10;;;21.60;58.80;;;;;;5052310;28;20203;-70
2023/11/06 03:28:49;;;;;;;2.17;1.50;;;21.60;58.80;;;;;;5052438;28;20175;-69
2023/11/06 03:31:15;;;;;;;2.13;1.20;;;21.60;58.80;;;;;;5052704;28;20257;-69
2023/11/06 03:33:41;;;;;;;2.43;1.50;;;21.60;58.90;;;;;;5052333;28;20206;-69
2023/11/06 03:36:07;;;;;;;2.17;1.70;;;21.60;58.90;;;;;;5052183;28;20245;-70
2023/11/06 03:38:33;;;;;;;2.07;1.40;;;21.60;58.80;;;;;;5052248;28;20170;-69
2023/11/06 03:40:59;;;;;;;1.50;1.20;;;21.60;58.90;;;;;;5052233;28;20467;-69
2023/11/06 03:43:24;;;;;;;2.57;1.63;;;21.60;58.80;;;;;;5050734;28;20199;-69
2023/11/06 03:45:50;;;;;;;1.80;1.40;;;21.60;58.80;;;;;;5052002;28;20190;-70
2023/11/06 03:48:16;;;;;;;1.97;1.70;;;21.60;58.90;;;;;;5052056;28;20261;-69
2023/11/06 03:50:44;;;;;;;2.07;1.37;;;21.60;58.80;;;;;;5052049;28;20508;-70
2023/11/06 03:53:10;;;;;;;2.57;1.60;;;21.60;58.80;;;;;;5051977;28;20171;-69
2023/11/06 03:55:36;;;;;;;1.70;1.20;;;21.60;58.80;;;;;;5051902;28;20962;-69
2023/11/06 03:58:03;;;;;;;1.80;1.17;;;21.50;58.70;;;;;;5051777;28;20633;-69
2023/11/06 04:00:29;;;;;;;1.53;1.20;;;21.60;58.80;;;;;;5051845;28;20170;-69
2023/11/06 04:02:55;;;;;;;2.97;1.57;;;21.60;58.80;;;;;;5051817;28;20398;-69
2023/11/06 04:05:21;;;;;;;2.30;1.33;;;21.60;58.80;;;;;;5051699;28;21007;-69
2023/11/06 04:07:46;;;;;;;2.17;1.37;;;21.60;58.80;;;;;;5051733;28;20735;-70
2023/11/06 04:10:12;;;;;;;1.30;1.20;;;21.60;58.80;;;;;;5051648;28;20183;-71
2023/11/06 04:12:38;;;;;;;2.00;1.43;;;21.60;58.80;;;;;;5051605;28;20175;-69
2023/11/06 04:15:07;;;;;;;1.30;1.20;;;21.60;58.80;;;;;;5051498;28;20278;-69
2023/11/06 04:17:33;;;;;;;2.00;1.40;;;21.60;58.80;;;;;;5051341;28;20234;-69
2023/11/06 04:19:59;;;;;;;1.83;1.43;;;21.60;58.80;;;;;;5051476;28;20511;-69
2023/11/06 04:22:25;;;;;;;1.70;1.20;;;21.60;58.80;;;;;;5051396;28;20171;-69
2023/11/06 04:24:50;;;;;;;1.97;1.20;;;21.60;58.80;;;;;;5051388;28;20409;-70
2023/11/06 04:27:16;;;;;;;2.90;1.70;;;21.60;58.80;;;;;;5051386;28;20525;-70
2023/11/06 04:29:41;;;;;;;2.10;1.30;;;21.60;58.80;;;;;;5051271;28;20171;-69
2023/11/06 04:32:07;;;;;;;2.13;1.50;;;21.60;58.80;;;;;;5051287;28;20259;-69
2023/11/06 04:34:33;;;;;;;1.30;1.00;;;21.60;58.80;;;;;;5051228;28;20776;-70
2023/11/06 04:36:59;;;;;;;2.33;1.57;;;21.60;58.80;;;;;;5051030;28;20681;-70
2023/11/06 04:39:24;;;;;;;1.97;1.10;;;21.60;58.80;;;;;;5050606;28;20168;-69
2023/11/06 04:41:50;;;;;;;1.73;1.17;;;21.60;58.80;;;;;;5051117;28;20275;-69
2023/11/06 04:44:16;;;;;;;1.67;1.27;;;21.60;58.80;;;;;;5051009;28;20167;-70
2023/11/06 04:46:41;;;;;;;1.57;1.47;;;21.60;58.80;;;;;;5050948;28;20230;-70
2023/11/06 04:49:07;;;;;;;4.97;1.53;;;21.60;58.70;;;;;;5050954;28;20728;-69
2023/11/06 04:51:32;;;;;;;1.80;1.30;;;21.60;58.70;;;;;;5050905;28;20186;-70
2023/11/06 04:53:59;;;;;;;1.40;1.00;;;21.50;58.70;;;;;;5050939;28;20174;-69
2023/11/06 04:56:24;;;;;;;1.47;1.20;;;21.60;58.70;;;;;;5050689;28;20209;-69
2023/11/06 04:58:50;;;;;;;1.60;1.20;;;21.50;58.60;;;;;;5050757;28;20750;-70
2023/11/06 05:01:19;;;;;;;2.00;1.70;;;21.50;59.20;;;;;;5050993;28;20195;-70
2023/11/06 05:03:44;;;;;;;1.57;1.07;;;21.60;58.70;;;;;;5050691;28;20224;-69
2023/11/06 05:06:10;;;;;;;1.63;1.37;;;21.50;58.60;;;;;;5050573;28;20422;-69
2023/11/06 05:08:36;;;;;;;1.97;1.40;;;21.50;58.60;;;;;;5050607;28;21027;-69
2023/11/06 05:11:02;;;;;;;2.73;1.07;;;21.60;58.70;;;;;;5050602;28;20194;-69
2023/11/06 05:13:28;;;;;;;2.03;1.17;;;21.60;58.60;;;;;;5050717;28;20398;-70
2023/11/06 05:15:53;;;;;;;2.30;1.13;;;21.50;58.60;;;;;;5050628;28;20201;-69
2023/11/06 05:18:19;;;;;;;1.70;1.10;;;21.50;58.60;;;;;;5050418;28;20596;-69
2023/11/06 05:20:45;;;;;;;1.33;1.20;;;21.50;58.60;;;;;;5050217;28;20174;-70
2023/11/06 05:23:11;;;;;;;2.57;1.30;;;21.50;58.60;;;;;;5050687;28;20645;-69
2023/11/06 05:25:37;;;;;;;1.60;1.00;;;21.50;58.60;;;;;;5050337;28;20670;-70
2023/11/06 05:28:03;;;;;;;1.30;1.00;;;21.50;58.70;;;;;;5040791;28;20457;-70
2023/11/06 05:30:29;;;;;;;1.47;1.20;;;21.50;58.70;;;;;;5049196;28;20575;-70
2023/11/06 05:32:55;;;;;;;1.17;0.93;;;21.60;58.80;;;;;;5046952;28;20569;-70
2023/11/06 05:35:21;;;;;;;1.43;1.10;;;21.60;58.80;;;;;;5048571;28;20463;-69
2023/11/06 05:37:46;;;;;;;2.17;1.10;;;21.50;58.90;;;;;;5048177;28;20241;-72
2023/11/06 05:40:12;;;;;;;1.57;1.00;;;21.50;58.60;;;;;;5048135;28;20437;-70
2023/11/06 05:42:39;;;;;;;2.80;1.10;;;21.50;58.60;;;;;;5048649;28;20182;-68
2023/11/06 05:45:06;;;;;;;1.53;1.27;;;21.50;58.60;;;;;;5049994;28;20571;-70
2023/11/06 05:47:32;;;;;;;1.50;1.20;;;21.50;58.60;;;;;;5050112;28;20750;-70
2023/11/06 05:49:58;;;;;;;3.23;1.40;;;21.50;58.60;;;;;;5049244;28;20511;-68
2023/11/06 05:52:24;;;;;;;1.53;1.07;;;21.50;58.70;;;;;;5050012;28;20544;-70
2023/11/06 05:54:50;;;;;;;1.87;1.30;;;21.50;58.70;;;;;;5048591;28;20182;-67
2023/11/06 05:57:15;;;;;;;3.63;1.60;;;21.60;58.70;;;;;;5049874;28;20457;-70
2023/11/06 05:59:41;;;;;;;1.83;1.30;;;21.50;58.70;;;;;;5050000;28;20646;-70
2023/11/06 06:02:08;;;;;;;2.17;1.20;;;21.60;58.70;;;;;;5049864;28;20171;-69
2023/11/06 06:04:34;;;;;;;1.80;1.40;;;21.50;58.70;;;;;;5049858;28;20252;-70
2023/11/06 06:07:00;;;;;;;1.13;0.93;;;21.50;58.70;;;;;;5049650;28;20932;-69
2023/11/06 06:09:26;;;;;;;1.73;1.23;;;21.50;58.70;;;;;;5049842;28;20414;-71
2023/11/06 06:11:52;;;;;;;1.10;0.90;;;21.50;58.70;;;;;;5049849;28;20177;-70
2023/11/06 06:14:18;;;;;;;2.70;1.37;;;21.60;58.80;;;;;;5049690;28;20500;-70
2023/11/06 06:16:48;;;;;;;3.33;1.40;;;21.50;58.70;;;;;;5049424;28;20681;-68
2023/11/06 06:19:14;;;;;;;2.47;1.13;;;21.50;59.30;;;;;;5049794;28;20167;-70
2023/11/06 06:21:40;;;;;;;3.20;1.20;;;21.60;58.80;;;;;;5049787;28;20775;-68
2023/11/06 06:24:08;;;;;;;1.83;1.30;;;21.50;58.70;;;;;;5049660;28;20398;-70
2023/11/06 06:26:34;;;;;;;1.87;1.40;;;21.60;58.80;;;;;;5049570;28;20569;-70
2023/11/06 06:29:00;;;;;;;1.50;1.20;;;21.50;58.70;;;;;;5048254;28;20492;-69
2023/11/06 06:31:27;;;;;;;2.57;1.13;;;21.50;58.70;;;;;;5049608;28;20512;-70
2023/11/06 06:33:53;;;;;;;2.13;1.13;;;21.50;58.70;;;;;;5047362;28;20193;-70
2023/11/06 06:36:18;;;;;;;1.30;1.13;;;21.50;58.70;;;;;;5049278;28;20461;-70
2023/11/06 06:38:44;;;;;;;3.07;1.30;;;21.50;58.70;;;;;;5049510;28;20189;-70
2023/11/06 06:41:09;;;;;;;2.13;1.27;;;21.50;58.70;;;;;;5049555;28;20170;-70
2023/11/06 06:43:35;;;;;;;1.53;1.10;;;21.60;58.70;;;;;;5049803;28;20554;-70
2023/11/06 06:46:02;;;;;;;1.40;1.20;;;21.50;58.60;;;;;;5049422;28;20187;-69
2023/11/06 06:48:28;;;;;;;1.93;1.20;;;21.50;58.60;;;;;;5049736;28;20211;-69
2023/11/06 06:50:53;;;;;;;2.57;1.20;;;21.50;58.60;;;;;;5049434;28;20940;-69
2023/11/06 06:53:19;;;;;;;2.30;1.10;;;21.50;58.60;;;;;;5049414;28;20497;-69
2023/11/06 06:55:44;;;;;;;4.23;1.20;;;21.50;59.20;;;;;;5049398;28;20191;-69
2023/11/06 06:58:10;;;;;;;1.50;1.10;;;21.60;58.70;;;;;;5049374;28;20214;-70
2023/11/06 07:00:36;;;;;;;1.50;1.07;;;21.50;58.70;;;;;;5049449;28;20677;-71
2023/11/06 07:03:05;;;;;;;1.93;1.20;;;21.60;58.80;;;;;;5053070;28;20171;-70
2023/11/06 07:05:32;;;;;;;2.03;1.60;;;21.50;58.70;;;;;;5052898;28;20203;-69
2023/11/06 07:07:57;;;;;;;2.03;1.30;;;21.50;58.70;;;;;;5052994;28;20410;-71
2023/11/06 07:10:23;;;;;;;3.10;1.40;;;21.60;58.80;;;;;;5052912;28;20409;-70
2023/11/06 07:12:48;;;;;;;1.30;0.90;;;21.50;58.70;;;;;;5052905;28;20182;-70
2023/11/06 07:15:15;;;;;;;1.40;1.00;;;21.60;58.80;;;;;;5052742;28;20199;-69
2023/11/06 07:17:40;;;;;;;3.60;1.10;;;21.50;58.80;;;;;;5052576;28;20202;-69
2023/11/06 07:20:06;;;;;;;1.93;1.20;;;21.50;58.80;;;;;;5051368;28;20416;-70
2023/11/06 07:22:32;;;;;;;1.37;1.00;;;21.50;58.80;;;;;;5052688;28;20712;-68
2023/11/06 07:24:58;;;;;;;1.47;1.07;;;21.50;58.70;;;;;;5052565;28;20413;-70
2023/11/06 07:27:24;;;;;;;1.90;1.20;;;21.50;58.80;;;;;;5052520;28;20463;-71
2023/11/06 07:29:50;;;;;;;1.53;0.90;;;21.50;58.70;;;;;;5052481;28;20171;-68
2023/11/06 07:32:16;;;;;;;3.43;1.17;;;21.60;58.80;;;;;;5052514;28;20416;-70
2023/11/06 07:34:41;;;;;;;1.33;0.97;;;21.50;58.70;;;;;;5052494;28;20225;-69
2023/11/06 07:37:09;;;;;;;1.40;1.00;;;21.60;58.80;;;;;;5052247;28;20733;-69
2023/11/06 07:39:35;;;;;;;3.83;1.30;;;21.60;58.80;;;;;;5052377;28;20650;-70
2023/11/06 07:42:01;;;;;;;1.60;0.90;;;21.60;58.80;;;;;;5052349;28;20410;-69
2023/11/06 07:44:26;;;;;;;1.67;0.90;;;21.60;58.80;;;;;;5052595;28;20199;-71
2023/11/06 07:46:52;;;;;;;1.73;1.00;;;21.60;58.80;;;;;;5052145;28;20214;-68
2023/11/06 07:49:18;;;;;;;2.17;1.00;;;21.50;58.70;;;;;;5050801;28;20190;-70
2023/11/06 07:51:44;;;;;;;2.20;1.23;;;21.60;58.80;;;;;;5052179;28;20717;-70
2023/11/06 07:54:10;;;;;;;1.30;1.00;;;21.60;58.80;;;;;;5052094;28;20508;-70
2023/11/06 07:56:39;;;;;;;1.60;1.00;;;21.60;58.80;;;;;;5051950;28;20191;-70
2023/11/06 07:59:04;;;;;;;1.33;1.10;;;21.60;58.90;;;;;;5052044;28;20420;-71
2023/11/06 08:01:30;;;;;;;1.53;1.00;;;21.60;58.80;;;;;;5052041;28;20402;-70
2023/11/06 08:03:55;;;;;;;4.63;1.10;;;21.60;58.80;;;;;;5051936;28;20203;-70
2023/11/06 08:06:21;;;;;;;1.70;1.17;;;21.60;58.90;;;;;;5051818;28;20248;-69
2023/11/06 08:08:47;;;;;;;1.60;1.30;;;21.60;58.90;;;;;;5051838;28;20175;-71
2023/11/06 08:11:12;;;;;;;1.70;1.07;;;21.60;58.90;;;;;;5050478;28;20595;-70
2023/11/06 08:13:38;;;;;;;3.17;1.40;;;21.60;58.90;;;;;;5050825;28;20190;-69
2023/11/06 08:16:04;;;;;;;1.10;0.97;;;21.60;58.90;;;;;;5050214;28;20211;-69
2023/11/06 08:18:30;;;;;;;1.80;1.20;;;21.60;58.90;;;;;;5050173;28;20201;-68
2023/11/06 08:20:55;;;;;;;1.40;0.90;;;21.60;58.90;;;;;;5051604;28;20413;-69
2023/11/06 08:23:21;;;;;;;1.20;0.90;;;21.60;58.90;;;;;;5051813;28;20405;-70
2023/11/06 08:25:47;;;;;;;2.37;1.10;;;21.60;59.40;;;;;;5051428;28;20190;-69
2023/11/06 08:28:12;;;;;;;1.77;1.00;;;21.60;58.90;;;;;;5051454;28;20832;-70
2023/11/06 08:30:38;;;;;;;1.60;1.30;;;21.60;58.90;;;;;;5051312;28;20972;-70
2023/11/06 08:33:04;;;;;;;1.53;1.03;;;21.60;58.90;;;;;;5051323;28;20171;-70
2023/11/06 08:35:29;;;;;;;1.73;1.00;;;21.60;58.90;;;;;;5051278;28;20199;-71
2023/11/06 08:37:55;;;;;;;1.80;1.00;;;21.60;58.80;;;;;;5051162;28;20210;-70
2023/11/06 08:40:21;;;;;;;1.30;0.80;;;21.60;58.80;;;;;;5051122;28;20171;-69
2023/11/06 08:42:47;;;;;;;1.50;1.10;;;21.60;58.90;;;;;;5051208;28;20908;-69
2023/11/06 08:45:13;;;;;;;1.73;1.27;;;21.60;58.80;;;;;;5051137;28;20218;-68
2023/11/06 08:47:39;;;;;;;4.70;1.40;;;21.60;58.80;;;;;;5051122;28;20464;-69
2023/11/06 08:50:06;;;;;;;1.60;1.20;;;21.60;58.90;;;;;;5051073;28;20175;-70
2023/11/06 08:52:32;;;;;;;1.00;0.87;;;21.60;59.00;;;;;;5050890;28;20414;-67
2023/11/06 08:54:58;;;;;;;1.60;0.90;;;21.60;58.90;;;;;;5050829;28;20831;-69
2023/11/06 08:57:24;;;;;;;1.40;0.90;;;21.60;58.90;;;;;;5050778;28;20282;-69
2023/11/06 08:59:50;;;;;;;1.80;1.07;;;21.60;58.90;;;;;;5051362;28;20213;-69
2023/11/06 09:02:15;;;;;;;1.70;1.07;;;21.60;58.90;;;;;;5050855;28;20433;-70
2023/11/06 09:04:41;;;;;;;1.77;1.20;;;21.60;59.00;;;;;;5050763;28;20864;-71
2023/11/06 09:07:07;;;;;;;1.60;1.10;;;21.60;58.90;;;;;;5050864;28;20207;-70
2023/11/06 09:09:33;;;;;;;1.90;1.00;;;21.60;58.90;;;;;;5050909;28;20229;-68
2023/11/06 09:11:59;;;;;;;2.97;1.10;;;21.60;58.90;;;;;;5050626;28;20844;-70
2023/11/06 09:14:25;;;;;;;2.00;0.90;;;21.60;58.90;;;;;;5050648;28;20183;-69
2023/11/06 09:16:50;;;;;;;1.23;0.80;;;21.60;58.90;;;;;;5050313;28;20199;-70
2023/11/06 09:19:17;;;;;;;1.00;0.90;;;21.60;59.00;;;;;;5050535;28;20769;-70
2023/11/06 09:21:43;;;;;;;2.53;0.90;;;21.60;58.90;;;;;;5050479;28;20182;-68
2023/11/06 09:24:09;;;;;;;1.33;0.93;;;21.60;58.90;;;;;;5050242;28;20900;-67
2023/11/06 09:26:35;;;;;;;1.40;1.00;;;21.60;58.90;;;;;;5050315;28;20195;-68
2023/11/06 09:29:01;;;;;;;1.10;0.80;;;21.60;58.90;;;;;;5050341;28;20428;-70
2023/11/06 09:31:27;;;;;;;1.27;1.03;;;21.60;58.90;;;;;;5049009;28;20187;-70
2023/11/06 09:33:53;;;;;;;1.70;1.10;;;21.60;58.90;;;;;;5050314;28;20255;-69
2023/11/06 09:36:19;;;;;;;2.00;1.07;;;21.60;58.90;;;;;;5050149;28;21013;-71
2023/11/06 09:38:45;;;;;;;1.57;0.97;;;21.60;59.00;;;;;;5050234;28;20174;-68
2023/11/06 09:41:14;;;;;;;1.20;0.90;;;21.60;58.90;;;;;;5050464;28;21050;-70
2023/11/06 09:43:41;;;;;;;0.90;0.80;;;21.60;59.50;;;;;;5050153;28;20167;-69
2023/11/06 09:46:11;;;;;;;1.80;0.90;;;21.60;58.90;;;;;;5050129;28;20429;-70
2023/11/06 09:48:38;;;;;;;1.10;0.93;;;21.60;58.90;;;;;;5050148;28;20865;-69
2023/11/06 09:51:12;;;;;;;1.60;1.23;;;21.70;59.00;;;;;;5050084;28;20460;-69
2023/11/06 09:53:40;;;;;;;1.77;0.80;;;21.60;58.90;;;;;;5050063;28;20400;-69
2023/11/06 09:56:08;;;;;;;1.23;1.13;;;21.60;58.90;;;;;;5049864;28;20429;-70
2023/11/06 09:58:35;;;;;;;1.57;0.97;;;21.60;59.00;;;;;;5049974;28;20444;-69
2023/11/06 10:01:00;;;;;;;1.50;1.00;;;21.60;58.90;;;;;;5049898;28;20405;-70
2023/11/06 10:03:26;;;;;;;1.50;0.90;;;21.60;59.00;;;;;;5049914;28;20412;-69
2023/11/06 10:05:52;;;;;;;1.50;1.03;;;21.60;59.00;;;;;;5049777;28;20202;-69
2023/11/06 10:08:31;;;;;;;1.40;1.20;;;21.60;59.00;;;;;;5049905;28;20178;-70
2023/11/06 10:11:04;;;;;;;2.43;0.90;;;21.70;59.00;;;;;;5049931;28;20236;-69
2023/11/06 10:13:31;;;;;;;1.30;0.90;;;21.70;59.00;;;;;;5049864;28;20417;-70
2023/11/06 10:16:17;;;;;;;2.23;1.00;;;21.70;59.00;;;;;;5049763;28;20483;-70
2023/11/06 10:18:44;;;;;;;1.10;0.80;;;21.70;59.10;;;;;;5049668;28;20425;-68
2023/11/06 10:21:11;;;;;;;1.77;1.20;;;21.60;59.00;;;;;;5049996;28;20417;-69
2023/11/06 10:23:37;;;;;;;1.77;0.90;;;21.70;59.10;;;;;;5049753;28;20432;-70
2023/11/06 10:26:14;;;;;;;1.30;1.00;;;21.60;59.00;;;;;;5049641;28;20453;-70
2023/11/06 10:28:41;;;;;;;1.30;0.90;;;21.70;59.00;;;;;;5049634;28;20194;-69
2023/11/06 10:31:07;;;;;;;1.47;1.00;;;21.70;59.10;;;;;;5049679;28;20510;-70
2023/11/06 10:33:34;;;;;;;1.20;1.00;;;21.60;59.00;;;;;;5049895;28;20519;-68
2023/11/06 10:36:00;;;;;;;2.27;0.97;;;21.70;59.00;;;;;;5050316;28;20966;-70
2023/11/06 10:38:35;;;;;;;2.33;1.07;;;21.70;59.60;;;;;;5053497;28;20198;-70
2023/11/06 10:41:24;;;;;;;1.30;0.70;;;21.70;59.00;;;;;;5053455;28;20856;-70
2023/11/06 10:44:00;;;;;;;1.87;1.00;;;21.70;59.00;;;;;;5053341;28;20497;-69
2023/11/06 10:46:31;;;;;;;1.60;1.00;;;21.70;59.00;;;;;;5053302;28;20479;-70
2023/11/06 10:49:33;;;;;;;1.63;1.00;;;21.70;59.00;;;;;;5053298;28;20493;-69
2023/11/06 10:52:00;;;;;;;1.00;0.90;;;21.70;59.00;;;;;;5053279;28;20490;-70
2023/11/06 10:54:29;;;;;;;1.33;0.90;;;21.70;59.00;;;;;;5053477;28;20447;-70
2023/11/06 10:56:57;;;;;;;1.30;1.00;;;21.70;59.00;;;;;;5052899;28;20482;-68
2023/11/06 10:59:25;;;;;;;2.03;1.20;;;21.70;59.00;;;;;;5053109;28;20409;-69
2023/11/06 11:01:58;;;;;;;1.00;0.70;;;21.70;59.00;;;;;;5053102;28;20418;-70
2023/11/06 11:04:26;;;;;;;1.70;1.17;;;21.70;59.00;;;;;;5053020;28;20490;-70
2023/11/06 11:06:52;;;;;;;1.50;1.10;;;21.70;59.00;;;;;;5052859;28;20935;-70
2023/11/06 11:09:18;;;;;;;1.17;0.80;;;21.70;59.00;;;;;;5053155;28;20508;-71
2023/11/06 11:11:44;;;;;;;1.33;0.87;;;21.70;59.00;;;;;;5052901;28;20889;-70
2023/11/06 11:14:14;;;;;;;1.03;0.80;;;21.70;59.00;;;;;;5052798;28;20417;-69
2023/11/06 11:16:41;;;;;;;3.00;1.40;;;21.70;59.00;;;;;;5052596;28;20468;-70
2023/11/06 11:19:27;;;;;;;1.40;0.90;;;21.70;59.00;;;;;;5052634;28;20437;-70
2023/11/06 11:22:08;;;;;;;3.43;0.70;;;21.70;59.00;;;;;;5052669;28;20397;-70
2023/11/06 11:24:44;;;;;;;1.50;1.00;;;21.70;59.00;;;;;;5054207;28;20424;-70
2023/11/06 11:27:16;;;;;;;1.17;0.70;;;21.70;59.00;;;;;;5052500;28;20451;-71
2023/11/06 11:29:53;;;;;;;1.10;0.80;;;21.70;59.00;;;;;;5052456;28;20406;-70
2023/11/06 11:32:52;;;;;;;1.30;0.90;;;21.70;59.00;;;;;;5052366;28;20421;-68
2023/11/06 11:35:40;;;;;;;1.37;0.87;;;21.70;59.00;;;;;;5050857;28;20456;-70
2023/11/06 11:38:07;;;;;;;1.00;0.80;;;21.70;59.10;;;;;;5052328;28;20975;-68
2023/11/06 11:40:41;;;;;;;1.00;0.80;;;21.70;59.00;;;;;;5052609;28;20454;-70
2023/11/06 11:43:28;;;;;;;1.37;0.87;;;21.70;59.00;;;;;;5052243;28;20422;-70
2023/11/06 11:45:54;;;;;;;1.37;0.80;;;21.70;59.00;;;;;;5051960;28;20425;-70
2023/11/06 11:48:19;;;;;;;1.30;0.90;;;21.70;59.00;;;;;;5050768;28;20420;-70
2023/11/06 11:50:49;;;;;;;1.73;1.37;;;21.70;59.00;;;;;;5052200;28;20500;-68
2023/11/06 11:53:34;;;;;;;1.50;0.90;;;21.70;59.00;;;;;;5052081;28;20171;-69
2023/11/06 11:55:59;;;;;;;1.43;0.97;;;21.70;59.00;;;;;;5051943;28;20785;-69
2023/11/06 11:58:25;;;;;;;1.30;0.80;;;21.70;59.00;;;;;;5051928;28;20461;-70
2023/11/06 12:00:57;;;;;;;1.47;1.00;;;21.70;59.00;;;;;;5051905;28;20650;-69
2023/11/06 12:03:24;;;;;;;1.87;1.20;;;21.70;59.00;;;;;;5051857;28;20147;-70
2023/11/06 12:05:58;;;;;;;2.07;1.10;;;21.70;59.00;;;;;;5051750;28;20462;-69
2023/11/06 12:08:26;;;;;;;1.13;1.03;;;21.70;59.00;;;;;;5051961;28;20418;-68
2023/11/06 12:10:53;;;;;;;1.93;1.30;;;21.70;59.00;;;;;;5051676;28;20864;-69
2023/11/06 12:13:23;;;;;;;2.67;1.40;;;21.70;59.00;;;;;;5051711;28;20896;-69
2023/11/06 12:15:51;;;;;;;2.33;1.20;;;21.70;59.00;;;;;;5051521;28;20433;-68
2023/11/06 12:18:21;;;;;;;2.70;1.30;;;21.70;59.00;;;;;;5051415;28;20469;-70
2023/11/06 12:20:57;;;;;;;1.57;1.27;;;21.70;59.00;;;;;;5051839;28;20414;-70
2023/11/06 12:23:36;;;;;;;2.40;1.30;;;21.70;59.00;;;;;;5051616;28;20417;-70
2023/11/06 12:26:10;;;;;;;2.93;1.43;;;21.70;59.00;;;;;;5051499;28;20512;-69
2023/11/06 12:28:45;;;;;;;2.13;1.30;;;21.70;59.00;;;;;;5051496;28;20914;-68
2023/11/06 12:31:11;;;;;;;2.03;1.30;;;21.70;59.00;;;;;;5051365;28;20416;-69
2023/11/06 12:33:37;;;;;;;1.80;1.40;;;21.70;59.00;;;;;;5051142;28;20916;-70
2023/11/06 12:36:03;;;;;;;2.57;1.83;;;21.70;59.00;;;;;;5051170;28;20433;-69
2023/11/06 12:38:38;;;;;;;3.53;2.20;;;21.70;59.00;;;;;;5051174;28;20195;-69
2023/11/06 12:41:05;;;;;;;9.70;3.93;;;21.70;59.00;;;;;;5051205;28;20175;-69
2023/11/06 12:43:31;;;;;;;12.27;5.43;;;21.80;59.00;;;;;;5051151;28;20416;-70
2023/11/06 12:46:00;;;;;;;9.70;5.23;;;21.70;59.00;;;;;;5050967;28;20968;-69
2023/11/06 12:48:34;;;;;;;11.83;4.70;;;21.70;59.00;;;;;;5051003;28;20519;-70